sensor_id;sensor_type;location;lat;lon;timestamp;temperature;humidity
19892;DHT22;10108;50.142;8.724;2022-11-20T00:01:18;5.50;99.90
19892;DHT22;10108;50.142;8.724;2022-11-20T00:03:45;5.40;99.90
19892;DHT22;10108;50.142;8.724;2022-11-20T00:06:14;5.50;99.90
19892;DHT22;10108;50.142;8.724;2022-11-20T00:08:41;5.50;99.90
19892;DHT22;10108;50.142;8.724;2022-11-20T00:11:14;5.60;99.90
19892;DHT22;10108;50.142;8.724;2022-11-20T00:13:40;5.60;99.90
19892;DHT22;10108;50.142;8.724;2022-11-20T00:16:08;5.60;99.90
19892;DHT22;10108;50.142;8.724;2022-11-20T00:18:35;5.60;99.90
19892;DHT22;10108;50.142;8.724;2022-11-20T00:21:07;5.60;99.90
19892;DHT22;10108;50.142;8.724;2022-11-20T00:23:35;5.60;99.90
19892;DHT22;10108;50.142;8.724;2022-11-20T00:26:06;5.60;99.90
19892;DHT22;10108;50.142;8.724;2022-11-20T00:28:33;5.50;99.90
19892;DHT22;10108;50.142;8.724;2022-11-20T00:31:03;5.50;99.90
19892;DHT22;10108;50.142;8.724;2022-11-20T00:33:30;5.50;99.90
19892;DHT22;10108;50.142;8.724;2022-11-20T00:36:04;5.50;99.90
19892;DHT22;10108;50.142;8.724;2022-11-20T00:38:34;5.40;99.90
19892;DHT22;10108;50.142;8.724;2022-11-20T00:41:03;5.40;99.90
19892;DHT22;10108;50.142;8.724;2022-11-20T00:43:29;5.40;99.90
19892;DHT22;10108;50.142;8.724;2022-11-20T00:46:10;5.30;99.90
19892;DHT22;10108;50.142;8.724;2022-11-20T00:48:37;5.40;99.90
19892;DHT22;10108;50.142;8.724;2022-11-20T00:51:04;5.40;99.90
19892;DHT22;10108;50.142;8.724;2022-11-20T00:53:30;5.40;99.90
19892;DHT22;10108;50.142;8.724;2022-11-20T00:56:02;5.50;99.90
19892;DHT22;10108;50.142;8.724;2022-11-20T00:58:31;5.50;99.90
19892;DHT22;10108;50.142;8.724;2022-11-20T01:01:08;5.50;99.90
19892;DHT22;10108;50.142;8.724;2022-11-20T01:03:39;5.50;99.90
19892;DHT22;10108;50.142;8.724;2022-11-20T01:06:10;5.50;99.90
19892;DHT22;10108;50.142;8.724;2022-11-20T01:08:37;5.50;99.90
19892;DHT22;10108;50.142;8.724;2022-11-20T01:11:13;5.50;99.90
19892;DHT22;10108;50.142;8.724;2022-11-20T01:13:40;5.50;99.90
19892;DHT22;10108;50.142;8.724;2022-11-20T01:16:17;5.50;99.90
19892;DHT22;10108;50.142;8.724;2022-11-20T01:18:49;5.50;99.90
19892;DHT22;10108;50.142;8.724;2022-11-20T01:21:20;5.50;99.90
19892;DHT22;10108;50.142;8.724;2022-11-20T01:23:48;5.50;99.90
19892;DHT22;10108;50.142;8.724;2022-11-20T01:26:18;5.60;99.90
19892;DHT22;10108;50.142;8.724;2022-11-20T01:28:44;5.60;99.90
19892;DHT22;10108;50.142;8.724;2022-11-20T01:31:26;5.50;99.90
19892;DHT22;10108;50.142;8.724;2022-11-20T01:33:54;5.40;99.90
19892;DHT22;10108;50.142;8.724;2022-11-20T01:36:23;5.40;99.90
19892;DHT22;10108;50.142;8.724;2022-11-20T01:38:57;5.30;99.90
19892;DHT22;10108;50.142;8.724;2022-11-20T01:41:25;5.20;99.90
19892;DHT22;10108;50.142;8.724;2022-11-20T01:44:12;5.20;99.90
19892;DHT22;10108;50.142;8.724;2022-11-20T01:47:00;5.00;99.90
19892;DHT22;10108;50.142;8.724;2022-11-20T01:49:38;4.90;99.90
19892;DHT22;10108;50.142;8.724;2022-11-20T01:52:15;4.90;99.90
19892;DHT22;10108;50.142;8.724;2022-11-20T01:54:58;4.90;99.90
19892;DHT22;10108;50.142;8.724;2022-11-20T01:57:27;4.90;99.90
19892;DHT22;10108;50.142;8.724;2022-11-20T02:00:02;4.80;99.90
19892;DHT22;10108;50.142;8.724;2022-11-20T02:02:40;4.80;99.90
19892;DHT22;10108;50.142;8.724;2022-11-20T02:08:05;4.80;99.90
19892;DHT22;10108;50.142;8.724;2022-11-20T02:10:31;4.70;99.90
19892;DHT22;10108;50.142;8.724;2022-11-20T02:12:58;4.70;99.90
19892;DHT22;10108;50.142;8.724;2022-11-20T02:15:43;4.70;99.90
19892;DHT22;10108;50.142;8.724;2022-11-20T02:18:11;4.80;99.90
19892;DHT22;10108;50.142;8.724;2022-11-20T02:20:38;4.80;99.90
19892;DHT22;10108;50.142;8.724;2022-11-20T02:23:31;4.90;99.90
19892;DHT22;10108;50.142;8.724;2022-11-20T02:26:01;4.90;99.90
19892;DHT22;10108;50.142;8.724;2022-11-20T02:28:28;4.90;99.90
19892;DHT22;10108;50.142;8.724;2022-11-20T02:30:54;5.00;99.90
19892;DHT22;10108;50.142;8.724;2022-11-20T02:33:20;5.00;99.90
19892;DHT22;10108;50.142;8.724;2022-11-20T02:35:47;5.00;99.90
19892;DHT22;10108;50.142;8.724;2022-11-20T02:38:13;5.00;99.90
19892;DHT22;10108;50.142;8.724;2022-11-20T02:40:40;5.00;99.90
19892;DHT22;10108;50.142;8.724;2022-11-20T02:43:06;4.90;99.90
19892;DHT22;10108;50.142;8.724;2022-11-20T02:45:33;4.90;99.90
19892;DHT22;10108;50.142;8.724;2022-11-20T02:47:59;5.00;99.90
19892;DHT22;10108;50.142;8.724;2022-11-20T02:50:26;5.10;99.90
19892;DHT22;10108;50.142;8.724;2022-11-20T02:52:52;5.10;99.90
19892;DHT22;10108;50.142;8.724;2022-11-20T02:55:18;5.20;99.90
19892;DHT22;10108;50.142;8.724;2022-11-20T02:57:44;5.20;99.90
19892;DHT22;10108;50.142;8.724;2022-11-20T03:00:11;5.10;99.90
19892;DHT22;10108;50.142;8.724;2022-11-20T03:02:37;5.20;99.90
19892;DHT22;10108;50.142;8.724;2022-11-20T03:05:03;5.20;99.90
19892;DHT22;10108;50.142;8.724;2022-11-20T03:07:29;5.10;99.90
19892;DHT22;10108;50.142;8.724;2022-11-20T03:09:56;5.00;99.90
19892;DHT22;10108;50.142;8.724;2022-11-20T03:12:22;4.80;99.90
19892;DHT22;10108;50.142;8.724;2022-11-20T03:14:48;4.80;99.90
19892;DHT22;10108;50.142;8.724;2022-11-20T03:17:14;4.80;99.90
19892;DHT22;10108;50.142;8.724;2022-11-20T03:19:41;4.70;99.90
19892;DHT22;10108;50.142;8.724;2022-11-20T03:22:07;4.70;99.90
19892;DHT22;10108;50.142;8.724;2022-11-20T03:24:33;4.70;99.90
19892;DHT22;10108;50.142;8.724;2022-11-20T03:26:59;4.60;99.90
19892;DHT22;10108;50.142;8.724;2022-11-20T03:29:26;4.60;99.90
19892;DHT22;10108;50.142;8.724;2022-11-20T03:31:52;4.60;99.90
19892;DHT22;10108;50.142;8.724;2022-11-20T03:34:18;4.60;99.90
19892;DHT22;10108;50.142;8.724;2022-11-20T03:36:44;4.50;99.90
19892;DHT22;10108;50.142;8.724;2022-11-20T03:39:10;4.50;99.90
19892;DHT22;10108;50.142;8.724;2022-11-20T03:41:39;4.50;99.90
19892;DHT22;10108;50.142;8.724;2022-11-20T03:44:07;4.50;99.90
19892;DHT22;10108;50.142;8.724;2022-11-20T03:46:33;4.50;99.90
19892;DHT22;10108;50.142;8.724;2022-11-20T03:49:00;4.60;99.90
19892;DHT22;10108;50.142;8.724;2022-11-20T03:51:34;4.60;99.90
19892;DHT22;10108;50.142;8.724;2022-11-20T03:54:07;4.70;99.90
19892;DHT22;10108;50.142;8.724;2022-11-20T03:56:36;4.70;99.90
19892;DHT22;10108;50.142;8.724;2022-11-20T03:59:04;4.70;99.90
19892;DHT22;10108;50.142;8.724;2022-11-20T04:01:32;4.70;99.90
19892;DHT22;10108;50.142;8.724;2022-11-20T04:03:59;4.70;99.90
19892;DHT22;10108;50.142;8.724;2022-11-20T04:06:27;4.70;99.90
19892;DHT22;10108;50.142;8.724;2022-11-20T04:08:58;4.70;99.90
19892;DHT22;10108;50.142;8.724;2022-11-20T04:11:29;4.60;99.90
19892;DHT22;10108;50.142;8.724;2022-11-20T04:14:06;4.70;99.90
19892;DHT22;10108;50.142;8.724;2022-11-20T04:16:36;4.80;99.90
19892;DHT22;10108;50.142;8.724;2022-11-20T04:19:05;4.80;99.90
19892;DHT22;10108;50.142;8.724;2022-11-20T04:21:32;4.80;99.90
19892;DHT22;10108;50.142;8.724;2022-11-20T04:23:58;4.70;99.90
19892;DHT22;10108;50.142;8.724;2022-11-20T04:26:26;4.70;99.90
19892;DHT22;10108;50.142;8.724;2022-11-20T04:28:53;4.60;99.90
19892;DHT22;10108;50.142;8.724;2022-11-20T04:31:21;4.60;99.90
19892;DHT22;10108;50.142;8.724;2022-11-20T04:33:48;4.50;99.90
19892;DHT22;10108;50.142;8.724;2022-11-20T04:36:16;4.60;99.90
19892;DHT22;10108;50.142;8.724;2022-11-20T04:38:42;4.60;99.90
19892;DHT22;10108;50.142;8.724;2022-11-20T04:41:14;4.60;99.90
19892;DHT22;10108;50.142;8.724;2022-11-20T04:43:41;4.60;99.90
19892;DHT22;10108;50.142;8.724;2022-11-20T04:46:07;4.60;99.90
19892;DHT22;10108;50.142;8.724;2022-11-20T04:48:34;4.60;99.90
19892;DHT22;10108;50.142;8.724;2022-11-20T04:51:03;4.70;99.90
19892;DHT22;10108;50.142;8.724;2022-11-20T04:53:30;4.70;99.90
19892;DHT22;10108;50.142;8.724;2022-11-20T04:56:04;4.70;99.90
19892;DHT22;10108;50.142;8.724;2022-11-20T04:58:31;4.70;99.90
19892;DHT22;10108;50.142;8.724;2022-11-20T05:01:24;4.70;99.90
19892;DHT22;10108;50.142;8.724;2022-11-20T05:03:51;4.70;99.90
19892;DHT22;10108;50.142;8.724;2022-11-20T05:06:19;4.70;99.90
19892;DHT22;10108;50.142;8.724;2022-11-20T05:08:46;4.70;99.90
19892;DHT22;10108;50.142;8.724;2022-11-20T05:11:17;4.70;99.90
19892;DHT22;10108;50.142;8.724;2022-11-20T05:13:43;4.70;99.90
19892;DHT22;10108;50.142;8.724;2022-11-20T05:16:12;4.70;99.90
19892;DHT22;10108;50.142;8.724;2022-11-20T05:18:39;4.80;99.90
19892;DHT22;10108;50.142;8.724;2022-11-20T05:21:07;4.80;99.90
19892;DHT22;10108;50.142;8.724;2022-11-20T05:23:33;4.80;99.90
19892;DHT22;10108;50.142;8.724;2022-11-20T05:26:00;4.80;99.90
19892;DHT22;10108;50.142;8.724;2022-11-20T05:28:28;4.80;99.90
19892;DHT22;10108;50.142;8.724;2022-11-20T05:30:54;4.80;99.90
19892;DHT22;10108;50.142;8.724;2022-11-20T05:33:20;4.80;99.90
19892;DHT22;10108;50.142;8.724;2022-11-20T05:35:47;4.80;99.90
19892;DHT22;10108;50.142;8.724;2022-11-20T05:38:14;4.80;99.90
19892;DHT22;10108;50.142;8.724;2022-11-20T05:40:40;4.80;99.90
19892;DHT22;10108;50.142;8.724;2022-11-20T05:43:06;4.80;99.90
19892;DHT22;10108;50.142;8.724;2022-11-20T05:45:32;4.80;99.90
19892;DHT22;10108;50.142;8.724;2022-11-20T05:47:59;4.80;99.90
19892;DHT22;10108;50.142;8.724;2022-11-20T05:50:27;4.80;99.90
19892;DHT22;10108;50.142;8.724;2022-11-20T05:52:53;4.80;99.90
19892;DHT22;10108;50.142;8.724;2022-11-20T05:55:19;4.70;99.90
19892;DHT22;10108;50.142;8.724;2022-11-20T05:57:45;4.80;99.90
19892;DHT22;10108;50.142;8.724;2022-11-20T06:00:12;4.80;99.90
19892;DHT22;10108;50.142;8.724;2022-11-20T06:02:38;4.90;99.90
19892;DHT22;10108;50.142;8.724;2022-11-20T06:05:04;4.90;99.90
19892;DHT22;10108;50.142;8.724;2022-11-20T06:07:30;5.00;99.90
19892;DHT22;10108;50.142;8.724;2022-11-20T06:09:57;5.00;99.90
19892;DHT22;10108;50.142;8.724;2022-11-20T06:12:23;5.00;99.90
19892;DHT22;10108;50.142;8.724;2022-11-20T06:14:49;5.10;99.90
19892;DHT22;10108;50.142;8.724;2022-11-20T06:17:15;5.20;99.90
19892;DHT22;10108;50.142;8.724;2022-11-20T06:19:41;5.10;99.90
19892;DHT22;10108;50.142;8.724;2022-11-20T06:22:07;5.10;99.90
19892;DHT22;10108;50.142;8.724;2022-11-20T06:24:33;5.10;99.90
19892;DHT22;10108;50.142;8.724;2022-11-20T06:26:59;5.10;99.90
19892;DHT22;10108;50.142;8.724;2022-11-20T06:29:25;5.20;99.90
19892;DHT22;10108;50.142;8.724;2022-11-20T06:31:51;5.20;99.90
19892;DHT22;10108;50.142;8.724;2022-11-20T06:34:17;5.20;99.90
19892;DHT22;10108;50.142;8.724;2022-11-20T06:36:43;5.30;99.90
19892;DHT22;10108;50.142;8.724;2022-11-20T06:39:10;5.20;99.90
19892;DHT22;10108;50.142;8.724;2022-11-20T06:41:36;5.20;99.90
19892;DHT22;10108;50.142;8.724;2022-11-20T06:44:04;5.20;99.90
19892;DHT22;10108;50.142;8.724;2022-11-20T06:46:31;5.10;99.90
19892;DHT22;10108;50.142;8.724;2022-11-20T06:48:57;5.10;99.90
19892;DHT22;10108;50.142;8.724;2022-11-20T06:51:24;5.00;99.90
19892;DHT22;10108;50.142;8.724;2022-11-20T06:53:50;5.00;99.90
19892;DHT22;10108;50.142;8.724;2022-11-20T06:56:16;5.00;99.90
19892;DHT22;10108;50.142;8.724;2022-11-20T06:58:42;5.00;99.90
19892;DHT22;10108;50.142;8.724;2022-11-20T07:01:13;5.00;99.90
19892;DHT22;10108;50.142;8.724;2022-11-20T07:03:40;5.00;99.90
19892;DHT22;10108;50.142;8.724;2022-11-20T07:06:07;4.90;99.90
19892;DHT22;10108;50.142;8.724;2022-11-20T07:08:34;4.90;99.90
19892;DHT22;10108;50.142;8.724;2022-11-20T07:11:03;4.90;99.90
19892;DHT22;10108;50.142;8.724;2022-11-20T07:13:29;4.80;99.90
19892;DHT22;10108;50.142;8.724;2022-11-20T07:16:03;4.90;99.90
19892;DHT22;10108;50.142;8.724;2022-11-20T07:18:30;4.80;99.90
19892;DHT22;10108;50.142;8.724;2022-11-20T07:20:59;4.90;99.90
19892;DHT22;10108;50.142;8.724;2022-11-20T07:23:25;4.90;99.90
19892;DHT22;10108;50.142;8.724;2022-11-20T07:25:51;4.90;99.90
19892;DHT22;10108;50.142;8.724;2022-11-20T07:28:17;4.80;99.90
19892;DHT22;10108;50.142;8.724;2022-11-20T07:30:52;4.80;99.90
19892;DHT22;10108;50.142;8.724;2022-11-20T07:33:19;4.70;99.90
19892;DHT22;10108;50.142;8.724;2022-11-20T07:35:45;4.50;99.90
19892;DHT22;10108;50.142;8.724;2022-11-20T07:38:11;4.30;99.90
19892;DHT22;10108;50.142;8.724;2022-11-20T07:40:37;4.20;99.90
19892;DHT22;10108;50.142;8.724;2022-11-20T07:43:03;4.10;99.90
19892;DHT22;10108;50.142;8.724;2022-11-20T07:45:30;4.00;99.90
19892;DHT22;10108;50.142;8.724;2022-11-20T07:47:56;3.90;99.90
19892;DHT22;10108;50.142;8.724;2022-11-20T07:50:22;3.70;99.90
19892;DHT22;10108;50.142;8.724;2022-11-20T07:52:48;3.70;99.90
19892;DHT22;10108;50.142;8.724;2022-11-20T07:55:14;3.90;99.90
19892;DHT22;10108;50.142;8.724;2022-11-20T07:57:41;4.00;99.90
19892;DHT22;10108;50.142;8.724;2022-11-20T08:00:09;4.20;99.90
19892;DHT22;10108;50.142;8.724;2022-11-20T08:02:39;4.20;99.90
19892;DHT22;10108;50.142;8.724;2022-11-20T08:05:06;4.20;99.90
19892;DHT22;10108;50.142;8.724;2022-11-20T08:07:37;4.30;99.90
19892;DHT22;10108;50.142;8.724;2022-11-20T08:10:03;4.40;99.90
19892;DHT22;10108;50.142;8.724;2022-11-20T08:12:30;4.50;99.90
19892;DHT22;10108;50.142;8.724;2022-11-20T08:15:14;4.40;99.90
19892;DHT22;10108;50.142;8.724;2022-11-20T08:17:40;4.40;99.90
19892;DHT22;10108;50.142;8.724;2022-11-20T08:20:07;4.50;99.90
19892;DHT22;10108;50.142;8.724;2022-11-20T08:22:33;4.50;99.90
19892;DHT22;10108;50.142;8.724;2022-11-20T08:24:59;4.50;99.90
19892;DHT22;10108;50.142;8.724;2022-11-20T08:27:25;4.50;99.90
19892;DHT22;10108;50.142;8.724;2022-11-20T08:29:52;4.60;99.90
19892;DHT22;10108;50.142;8.724;2022-11-20T08:32:18;4.70;99.90
19892;DHT22;10108;50.142;8.724;2022-11-20T08:34:44;4.80;99.90
19892;DHT22;10108;50.142;8.724;2022-11-20T08:37:10;5.00;99.90
19892;DHT22;10108;50.142;8.724;2022-11-20T08:39:36;5.20;99.90
19892;DHT22;10108;50.142;8.724;2022-11-20T08:42:06;5.30;99.90
19892;DHT22;10108;50.142;8.724;2022-11-20T08:44:32;5.20;99.90
19892;DHT22;10108;50.142;8.724;2022-11-20T08:46:58;5.20;99.90
19892;DHT22;10108;50.142;8.724;2022-11-20T08:49:24;5.20;99.90
19892;DHT22;10108;50.142;8.724;2022-11-20T08:51:50;5.20;99.90
19892;DHT22;10108;50.142;8.724;2022-11-20T08:54:19;5.30;99.90
19892;DHT22;10108;50.142;8.724;2022-11-20T08:56:48;5.40;99.90
19892;DHT22;10108;50.142;8.724;2022-11-20T08:59:14;5.50;99.90
19892;DHT22;10108;50.142;8.724;2022-11-20T09:01:40;5.50;99.90
19892;DHT22;10108;50.142;8.724;2022-11-20T09:04:06;5.50;99.90
19892;DHT22;10108;50.142;8.724;2022-11-20T09:06:32;5.40;99.90
19892;DHT22;10108;50.142;8.724;2022-11-20T09:08:58;5.40;99.90
19892;DHT22;10108;50.142;8.724;2022-11-20T09:11:24;5.40;99.90
19892;DHT22;10108;50.142;8.724;2022-11-20T09:13:50;5.50;99.90
19892;DHT22;10108;50.142;8.724;2022-11-20T09:16:17;5.50;99.90
19892;DHT22;10108;50.142;8.724;2022-11-20T09:18:43;5.50;99.90
19892;DHT22;10108;50.142;8.724;2022-11-20T09:21:10;5.50;99.90
19892;DHT22;10108;50.142;8.724;2022-11-20T09:23:38;5.50;99.90
19892;DHT22;10108;50.142;8.724;2022-11-20T09:26:10;5.50;99.90
19892;DHT22;10108;50.142;8.724;2022-11-20T09:28:37;5.60;99.90
19892;DHT22;10108;50.142;8.724;2022-11-20T09:31:21;5.60;99.90
19892;DHT22;10108;50.142;8.724;2022-11-20T09:33:47;5.60;99.90
19892;DHT22;10108;50.142;8.724;2022-11-20T09:36:13;5.60;99.90
19892;DHT22;10108;50.142;8.724;2022-11-20T09:38:40;5.70;99.90
19892;DHT22;10108;50.142;8.724;2022-11-20T09:41:13;5.70;99.90
19892;DHT22;10108;50.142;8.724;2022-11-20T09:44:11;5.80;99.90
19892;DHT22;10108;50.142;8.724;2022-11-20T09:46:47;5.80;99.90
19892;DHT22;10108;50.142;8.724;2022-11-20T09:49:32;5.90;99.90
19892;DHT22;10108;50.142;8.724;2022-11-20T09:52:41;5.90;99.90
19892;DHT22;10108;50.142;8.724;2022-11-20T09:55:11;6.00;99.90
19892;DHT22;10108;50.142;8.724;2022-11-20T09:57:42;6.00;99.90
19892;DHT22;10108;50.142;8.724;2022-11-20T10:00:12;6.10;99.90
19892;DHT22;10108;50.142;8.724;2022-11-20T10:02:52;6.10;99.90
19892;DHT22;10108;50.142;8.724;2022-11-20T10:05:28;6.20;99.90
19892;DHT22;10108;50.142;8.724;2022-11-20T10:10:42;6.30;99.90
19892;DHT22;10108;50.142;8.724;2022-11-20T10:13:18;6.30;99.90
19892;DHT22;10108;50.142;8.724;2022-11-20T10:27:14;6.40;99.90
19892;DHT22;10108;50.142;8.724;2022-11-20T10:29:47;6.40;99.90
19892;DHT22;10108;50.142;8.724;2022-11-20T10:32:17;6.50;99.90
19892;DHT22;10108;50.142;8.724;2022-11-20T10:34:51;6.40;99.90
19892;DHT22;10108;50.142;8.724;2022-11-20T10:37:22;6.50;99.90
19892;DHT22;10108;50.142;8.724;2022-11-20T10:42:43;6.50;99.90
19892;DHT22;10108;50.142;8.724;2022-11-20T10:45:19;6.50;99.90
19892;DHT22;10108;50.142;8.724;2022-11-20T10:47:48;6.50;99.90
19892;DHT22;10108;50.142;8.724;2022-11-20T10:50:19;6.40;99.90
19892;DHT22;10108;50.142;8.724;2022-11-20T10:53:02;6.50;99.90
19892;DHT22;10108;50.142;8.724;2022-11-20T11:01:11;6.50;99.90
19892;DHT22;10108;50.142;8.724;2022-11-20T11:03:39;6.50;99.90
19892;DHT22;10108;50.142;8.724;2022-11-20T11:06:21;6.60;99.90
19892;DHT22;10108;50.142;8.724;2022-11-20T11:08:53;6.60;99.90
19892;DHT22;10108;50.142;8.724;2022-11-20T11:11:23;6.60;99.90
19892;DHT22;10108;50.142;8.724;2022-11-20T11:13:50;6.70;99.90
19892;DHT22;10108;50.142;8.724;2022-11-20T11:16:25;6.70;99.90
19892;DHT22;10108;50.142;8.724;2022-11-20T11:19:02;6.70;99.90
19892;DHT22;10108;50.142;8.724;2022-11-20T11:21:29;6.60;99.90
19892;DHT22;10108;50.142;8.724;2022-11-20T11:24:00;6.70;99.90
19892;DHT22;10108;50.142;8.724;2022-11-20T11:26:26;6.60;99.90
19892;DHT22;10108;50.142;8.724;2022-11-20T11:28:55;6.60;99.90
19892;DHT22;10108;50.142;8.724;2022-11-20T11:31:29;6.60;99.90
19892;DHT22;10108;50.142;8.724;2022-11-20T11:34:14;6.60;99.90
19892;DHT22;10108;50.142;8.724;2022-11-20T11:36:40;6.50;99.90
19892;DHT22;10108;50.142;8.724;2022-11-20T11:39:13;6.60;99.90
19892;DHT22;10108;50.142;8.724;2022-11-20T11:41:41;6.60;99.90
19892;DHT22;10108;50.142;8.724;2022-11-20T11:44:21;6.60;99.90
19892;DHT22;10108;50.142;8.724;2022-11-20T11:47:26;6.70;99.90
19892;DHT22;10108;50.142;8.724;2022-11-20T11:50:14;6.80;99.90
19892;DHT22;10108;50.142;8.724;2022-11-20T11:52:56;6.80;99.90
19892;DHT22;10108;50.142;8.724;2022-11-20T11:56:00;6.90;99.90
19892;DHT22;10108;50.142;8.724;2022-11-20T11:58:50;6.90;99.90
19892;DHT22;10108;50.142;8.724;2022-11-20T12:01:32;7.00;99.90
19892;DHT22;10108;50.142;8.724;2022-11-20T12:06:34;7.00;99.90
19892;DHT22;10108;50.142;8.724;2022-11-20T12:09:09;7.00;99.90
19892;DHT22;10108;50.142;8.724;2022-11-20T12:12:40;7.00;99.90
19892;DHT22;10108;50.142;8.724;2022-11-20T12:14:38;7.10;99.90
19892;DHT22;10108;50.142;8.724;2022-11-20T12:17:10;7.20;99.90
19892;DHT22;10108;50.142;8.724;2022-11-20T12:19:36;7.20;99.90
19892;DHT22;10108;50.142;8.724;2022-11-20T12:25:12;7.30;99.90
19892;DHT22;10108;50.142;8.724;2022-11-20T12:30:17;7.40;99.90
19892;DHT22;10108;50.142;8.724;2022-11-20T12:35:57;7.40;99.90
19892;DHT22;10108;50.142;8.724;2022-11-20T12:41:47;7.40;99.90
19892;DHT22;10108;50.142;8.724;2022-11-20T12:47:48;7.40;99.90
19892;DHT22;10108;50.142;8.724;2022-11-20T12:50:28;7.40;99.90
19892;DHT22;10108;50.142;8.724;2022-11-20T12:53:27;7.30;99.90
19892;DHT22;10108;50.142;8.724;2022-11-20T12:56:04;7.40;99.90
19892;DHT22;10108;50.142;8.724;2022-11-20T13:01:16;7.30;99.90
19892;DHT22;10108;50.142;8.724;2022-11-20T13:04:12;7.30;99.90
19892;DHT22;10108;50.142;8.724;2022-11-20T13:06:40;7.20;99.90
19892;DHT22;10108;50.142;8.724;2022-11-20T13:09:13;7.20;99.90
19892;DHT22;10108;50.142;8.724;2022-11-20T13:14:34;7.20;99.90
19892;DHT22;10108;50.142;8.724;2022-11-20T13:17:25;7.10;99.90
19892;DHT22;10108;50.142;8.724;2022-11-20T13:19:55;7.10;99.90
19892;DHT22;10108;50.142;8.724;2022-11-20T13:22:29;7.20;99.90
19892;DHT22;10108;50.142;8.724;2022-11-20T13:25:22;7.10;99.90
19892;DHT22;10108;50.142;8.724;2022-11-20T13:27:48;7.10;99.90
19892;DHT22;10108;50.142;8.724;2022-11-20T13:30:18;7.10;99.90
19892;DHT22;10108;50.142;8.724;2022-11-20T13:33:07;7.10;99.90
19892;DHT22;10108;50.142;8.724;2022-11-20T13:35:37;7.10;99.90
19892;DHT22;10108;50.142;8.724;2022-11-20T13:38:14;7.10;99.90
19892;DHT22;10108;50.142;8.724;2022-11-20T13:40:56;7.10;99.90
19892;DHT22;10108;50.142;8.724;2022-11-20T13:43:26;7.10;99.90
19892;DHT22;10108;50.142;8.724;2022-11-20T13:46:04;7.10;99.90
19892;DHT22;10108;50.142;8.724;2022-11-20T13:48:42;7.10;99.90
19892;DHT22;10108;50.142;8.724;2022-11-20T13:51:34;7.10;99.90
19892;DHT22;10108;50.142;8.724;2022-11-20T13:54:14;7.10;99.90
19892;DHT22;10108;50.142;8.724;2022-11-20T13:57:03;7.10;99.90
19892;DHT22;10108;50.142;8.724;2022-11-20T14:02:11;7.10;99.90
19892;DHT22;10108;50.142;8.724;2022-11-20T14:04:43;7.10;99.90
19892;DHT22;10108;50.142;8.724;2022-11-20T14:07:10;7.20;99.90
19892;DHT22;10108;50.142;8.724;2022-11-20T14:09:37;7.20;99.90
19892;DHT22;10108;50.142;8.724;2022-11-20T14:12:12;7.20;99.90
19892;DHT22;10108;50.142;8.724;2022-11-20T14:14:48;7.10;99.90
19892;DHT22;10108;50.142;8.724;2022-11-20T14:19:48;7.20;99.90
19892;DHT22;10108;50.142;8.724;2022-11-20T14:22:21;7.10;99.90
19892;DHT22;10108;50.142;8.724;2022-11-20T14:27:39;7.10;99.90
19892;DHT22;10108;50.142;8.724;2022-11-20T14:30:12;7.20;99.90
19892;DHT22;10108;50.142;8.724;2022-11-20T14:32:41;7.20;99.90
19892;DHT22;10108;50.142;8.724;2022-11-20T14:35:14;7.20;99.90
19892;DHT22;10108;50.142;8.724;2022-11-20T14:37:45;7.20;99.90
19892;DHT22;10108;50.142;8.724;2022-11-20T14:42:49;7.10;99.90
19892;DHT22;10108;50.142;8.724;2022-11-20T14:45:15;7.10;99.90
19892;DHT22;10108;50.142;8.724;2022-11-20T14:47:42;7.10;99.90
19892;DHT22;10108;50.142;8.724;2022-11-20T14:50:19;7.10;99.90
19892;DHT22;10108;50.142;8.724;2022-11-20T14:52:51;7.10;99.90
19892;DHT22;10108;50.142;8.724;2022-11-20T14:55:36;7.10;99.90
19892;DHT22;10108;50.142;8.724;2022-11-20T14:58:29;7.10;99.90
19892;DHT22;10108;50.142;8.724;2022-11-20T15:00:58;7.10;99.90
19892;DHT22;10108;50.142;8.724;2022-11-20T15:03:35;7.20;99.90
19892;DHT22;10108;50.142;8.724;2022-11-20T15:06:02;7.20;99.90
19892;DHT22;10108;50.142;8.724;2022-11-20T15:08:28;7.20;99.90
19892;DHT22;10108;50.142;8.724;2022-11-20T15:10:55;7.10;99.90
19892;DHT22;10108;50.142;8.724;2022-11-20T15:13:25;7.10;99.90
19892;DHT22;10108;50.142;8.724;2022-11-20T15:15:54;7.10;99.90
19892;DHT22;10108;50.142;8.724;2022-11-20T15:18:30;7.10;99.90
19892;DHT22;10108;50.142;8.724;2022-11-20T15:20:58;7.10;99.90
19892;DHT22;10108;50.142;8.724;2022-11-20T15:23:27;7.10;99.90
19892;DHT22;10108;50.142;8.724;2022-11-20T15:25:53;7.10;99.90
19892;DHT22;10108;50.142;8.724;2022-11-20T15:30:53;7.10;99.90
19892;DHT22;10108;50.142;8.724;2022-11-20T15:33:21;7.10;99.90
19892;DHT22;10108;50.142;8.724;2022-11-20T15:35:47;7.10;99.90
19892;DHT22;10108;50.142;8.724;2022-11-20T15:38:13;7.10;99.90
19892;DHT22;10108;50.142;8.724;2022-11-20T15:40:40;7.10;99.90
19892;DHT22;10108;50.142;8.724;2022-11-20T15:43:06;7.10;99.90
19892;DHT22;10108;50.142;8.724;2022-11-20T15:45:53;7.10;99.90
19892;DHT22;10108;50.142;8.724;2022-11-20T15:48:23;7.00;99.90
19892;DHT22;10108;50.142;8.724;2022-11-20T15:53:35;7.10;99.90
19892;DHT22;10108;50.142;8.724;2022-11-20T15:56:02;7.10;99.90
19892;DHT22;10108;50.142;8.724;2022-11-20T15:58:29;7.10;99.90
19892;DHT22;10108;50.142;8.724;2022-11-20T16:00:55;7.10;99.90
19892;DHT22;10108;50.142;8.724;2022-11-20T16:03:21;7.10;99.90
19892;DHT22;10108;50.142;8.724;2022-11-20T16:05:48;7.10;99.90
19892;DHT22;10108;50.142;8.724;2022-11-20T16:08:14;7.10;99.90
19892;DHT22;10108;50.142;8.724;2022-11-20T16:10:40;7.10;99.90
19892;DHT22;10108;50.142;8.724;2022-11-20T16:13:17;7.10;99.90
19892;DHT22;10108;50.142;8.724;2022-11-20T16:16:06;7.10;99.90
19892;DHT22;10108;50.142;8.724;2022-11-20T16:18:35;7.00;99.90
19892;DHT22;10108;50.142;8.724;2022-11-20T16:21:01;7.00;99.90
19892;DHT22;10108;50.142;8.724;2022-11-20T16:23:27;6.90;99.90
19892;DHT22;10108;50.142;8.724;2022-11-20T16:25:54;6.90;99.90
19892;DHT22;10108;50.142;8.724;2022-11-20T16:28:20;6.80;99.90
19892;DHT22;10108;50.142;8.724;2022-11-20T16:30:46;6.80;99.90
19892;DHT22;10108;50.142;8.724;2022-11-20T16:33:14;6.80;99.90
19892;DHT22;10108;50.142;8.724;2022-11-20T16:35:41;6.80;99.90
19892;DHT22;10108;50.142;8.724;2022-11-20T16:38:07;6.80;99.90
19892;DHT22;10108;50.142;8.724;2022-11-20T16:40:34;6.80;99.90
19892;DHT22;10108;50.142;8.724;2022-11-20T16:43:09;6.90;99.90
19892;DHT22;10108;50.142;8.724;2022-11-20T16:45:40;6.80;99.90
19892;DHT22;10108;50.142;8.724;2022-11-20T16:48:06;6.80;99.90
19892;DHT22;10108;50.142;8.724;2022-11-20T16:50:32;6.80;99.90
19892;DHT22;10108;50.142;8.724;2022-11-20T16:52:58;6.70;99.90
19892;DHT22;10108;50.142;8.724;2022-11-20T16:55:24;6.70;99.90
19892;DHT22;10108;50.142;8.724;2022-11-20T16:57:51;6.70;99.90
19892;DHT22;10108;50.142;8.724;2022-11-20T17:00:17;6.60;99.90
19892;DHT22;10108;50.142;8.724;2022-11-20T17:02:43;6.60;99.90
19892;DHT22;10108;50.142;8.724;2022-11-20T17:05:09;6.60;99.90
19892;DHT22;10108;50.142;8.724;2022-11-20T17:07:35;6.50;99.90
19892;DHT22;10108;50.142;8.724;2022-11-20T17:10:02;6.50;99.90